Latest Coastal Weather Observations for Wynyard

IDT60701

Issued at 2:22 am EST Thursday 28 May 2020 (issued every 10 minutes, with the page automatically refreshed every 10 minutes)

About coastal observations | Map of coastal stations | Coastal observations for TAS | Marine services | Other Formats
Station Details ID: 091107 Name: WYNYARD AIRPORT Lat: -41.00 Lon: 145.73 Height: 12.0 m
Data from the previous 72 hours. | See also: Recent months at Wynyard
Date/Time
EST
Wind Sea
Height
m
Swell Vis
km
Cloud Weather Temp
°C
Press
hPa
Rain since
9am
mm
Dir  Spd
kts
Gust
kts
Height
m
Period
s
Dir
28/02:00am CALM 0 0 - - - - 10 Partly cloudy - 11.4 1016.4 1.4
28/01:30am W 4 5 - - - - 10 Partly cloudy - 11.6 1016.4 1.4
28/01:28am W 4 5 - - - - 10 Partly cloudy - 11.7 1016.4 1.4
28/01:10am WNW 10 12 - - - - 4 Partly cloudy - 11.9 1016.7 1.4
28/01:02am W 7 11 - - - - 5 Partly cloudy - 11.8 1016.8 0.8
28/01:00am W 5 11 - - - - 6 Partly cloudy - 11.5 1016.7 0.8
28/12:42am CALM 0 2 - - - - 10 Partly cloudy - 11.0 1016.7 0.4
28/12:30am SSW 3 5 - - - - 10 Partly cloudy - 10.9 1016.7 0.4
28/12:00am S 1 4 - - - - 10 Cloudy - 11.0 1016.8 0.4
 
Date/Time
EST
Wind Sea
Height
m
Swell Vis
km
Cloud Weather Temp
°C
Press
hPa
Rain since
9am
mm
Dir  Spd
kts
Gust
kts
Height
m
Period
s
Dir
27/11:30pm SSE 2 5 - - - - 10 Cloudy - 10.9 1016.8 0.4
27/11:00pm SSE 3 4 - - - - 9 Cloudy - 10.5 1017.0 0.4
27/10:30pm SSW 1 5 - - - - 8 Partly cloudy - 10.4 1017.3 0.4
27/10:00pm SSW 1 4 - - - - 10 Partly cloudy - 10.0 1017.5 0.0
27/09:30pm CALM 0 3 - - - - 10 Cloudy - 10.2 1017.4 0.0
27/09:00pm S 3 5 - - - - 10 Cloudy - 10.1 1017.5 0.0
27/08:30pm S 2 4 - - - - 10 Partly cloudy - 9.7 1017.4 0.0
27/08:00pm S 2 3 - - - - 10 Partly cloudy - 9.2 1017.5 0.0
27/07:30pm S 4 5 - - - - 10 Partly cloudy - 10.0 1017.5 0.0
27/07:00pm S 3 4 - - - - 10 Partly cloudy - 10.1 1017.3 0.0
27/06:30pm CALM 0 2 - - - - 10 Partly cloudy - 10.1 1017.5 0.0
27/06:00pm SSE 2 4 - - - - 10 Cloudy - 11.1 1017.3 0.0
27/05:30pm S 2 5 - - - - 10 Partly cloudy - 11.5 1017.2 0.0
27/05:00pm NW 1 4 - - - - 10 Partly cloudy - 13.1 1017.1 0.0
27/04:30pm N 5 8 - - - - 10 Partly cloudy - 13.7 1017.1 0.0
27/04:00pm NNW 6 8 - - - - 10 Partly cloudy - 14.1 1017.1 0.0
27/03:30pm NNW 8 13 - - - - 10 Partly cloudy - 14.6 1017.1 0.0
27/03:00pm N 6 9 - - - - 10 Cloudy - 14.6 1017.0 0.0
27/02:30pm NNW 6 9 - - - - 10 Partly cloudy - 15.0 1017.3 0.0
27/02:00pm NNW 6 8 - - - - 10 Cloudy - 14.9 1017.5 0.0
27/01:30pm NNE 3 7 - - - - 10 Partly cloudy - 14.6 1017.7 0.0
27/01:24pm ENE 3 7 - - - - 10 Partly cloudy - 14.7 1017.8 0.0
27/01:00pm ENE 5 10 - - - - 10 Partly cloudy - 14.7 1018.0 0.0
27/12:30pm E 8 10 - - - - 10 Partly cloudy - 14.1 1018.5 0.0
27/12:06pm E 9 11 - - - - 10 Partly cloudy - 14.2 1018.6 0.0
27/12:00pm ESE 9 12 - - - - 10 Cloudy - 14.3 1018.7 0.0
27/11:30am E 9 12 - - - - 10 Partly cloudy - 14.0 1019.3 0.0
27/11:00am E 9 10 - - - - 10 Partly cloudy - 13.9 1019.9 0.0
27/10:30am ESE 10 14 - - - - 10 Partly cloudy - 13.8 1020.2 0.0
27/10:00am ESE 10 14 - - - - 10 Partly cloudy - 13.9 1020.3 0.0
27/09:40am ESE 11 13 - - - - 10 Partly cloudy - 13.2 1020.3 0.0
27/09:30am ESE 10 14 - - - - 10 Partly cloudy - 12.9 1020.4 0.0
27/09:00am ENE 5 9 - - - - 10 Cloudy - 12.6 1020.7 0.2
27/08:30am SSE 3 6 - - - - 10 Cloudy - 12.3 1021.0 0.2
27/08:00am E 5 9 - - - - 10 Cloudy - 12.0 1021.0 0.2
27/07:30am W 3 7 - - - - 10 Cloudy - 12.2 1020.9 0.2
27/07:00am SE 5 7 - - - - 10 Cloudy - 12.2 1020.8 0.2
27/06:30am ESE 11 16 - - - - 10 Cloudy - 12.1 1020.6 0.2
27/06:00am ESE 9 13 - - - - 10 Cloudy - 12.2 1020.8 0.2
27/05:30am ESE 11 15 - - - - 10 Partly cloudy - 12.1 1020.9 0.2
27/05:00am E 11 15 - - - - 10 Partly cloudy - 12.1 1021.0 0.2
27/04:48am E 10 15 - - - - 10 Partly cloudy - 12.2 1021.0 0.2
27/04:43am E 11 15 - - - - 10 Partly cloudy - 12.2 1021.1 0.2
27/04:30am E 12 17 - - - - 10 Partly cloudy - 12.2 1021.0 0.2
27/04:00am E 11 16 - - - - 10 Cloudy - 12.2 1021.1 0.2
27/03:30am E 12 17 - - - - 10 Partly cloudy - 12.1 1021.4 0.2
27/03:00am E 10 16 - - - - 10 Cloudy - 12.0 1021.6 0.2
27/02:46am E 12 17 - - - - 10 Partly cloudy - 12.0 1021.6 0.2
27/02:30am E 12 15 - - - - 10 Partly cloudy - 11.9 1021.6 0.2
27/02:00am E 13 17 - - - - 10 Partly cloudy - 11.7 1021.9 0.2
27/01:53am E 13 16 - - - - 10 Partly cloudy - 11.7 1022.1 0.2
27/01:30am ESE 13 16 - - - - 10 Partly cloudy - 11.7 1022.2 0.2
27/01:24am E 13 17 - - - - 10 Partly cloudy - 11.7 1022.3 0.2
27/01:00am E 13 21 - - - - 10 Partly cloudy - 11.6 1022.6 0.2
27/12:53am E 13 19 - - - - 10 Partly cloudy - 11.5 1022.7 0.2
27/12:42am E 11 18 - - - - 10 Partly cloudy - 11.5 1022.7 0.2
27/12:30am ESE 12 16 - - - - 10 Partly cloudy - 11.2 1022.8 0.2
27/12:19am ESE 12 16 - - - - 10 Partly cloudy - 11.0 1022.9 0.2
27/12:04am ESE 12 16 - - - - 10 Partly cloudy - 10.9 1022.9 0.2
27/12:00am ESE 12 16 - - - - 10 Mostly cloudy - 10.8 1022.9 0.2
 
Date/Time
EST
Wind Sea
Height
m
Swell Vis
km
Cloud Weather Temp
°C
Press
hPa
Rain since
9am
mm
Dir  Spd
kts
Gust
kts
Height
m
Period
s
Dir
26/11:57pm ESE 13 17 - - - - 10 Partly cloudy - 10.8 1022.9 0.2
26/11:30pm ESE 13 18 - - - - 10 Partly cloudy - 11.1 1023.1 0.2
26/11:00pm ESE 13 18 - - - - 10 Cloudy - 10.8 1023.3 0.2
26/10:30pm ESE 13 17 - - - - 8 Cloudy - 10.4 1023.5 0.2
26/10:24pm ESE 13 16 - - - - 6 Cloudy - 10.4 1023.6 0.2
26/10:00pm ESE 14 20 - - - - 3 Partly cloudy - 10.7 1023.8 0.2
26/09:53pm E 15 21 - - - - 5 Partly cloudy - 10.9 1024.0 0.2
26/09:30pm E 16 20 - - - - 8 Partly cloudy - 11.3 1024.0 0.0
26/09:25pm E 15 20 - - - - 7 Partly cloudy - 11.5 1024.0 0.0
26/09:10pm E 14 18 - - - - 10 Partly cloudy - 11.3 1024.1 0.0
26/09:00pm E 16 21 - - - - 10 Cloudy - 11.5 1024.2 0.0
26/08:30pm E 14 18 - - - - 10 Partly cloudy - 11.6 1024.5 0.0
26/08:00pm E 12 16 - - - - 10 Cloudy - 11.3 1024.5 0.0
26/07:30pm ESE 9 14 - - - - 10 Partly cloudy - 10.9 1024.5 0.0
26/07:00pm E 7 10 - - - - 10 Partly cloudy - 10.8 1024.8 0.0
26/06:57pm E 8 10 - - - - 10 Partly cloudy - 10.8 1024.8 0.0
26/06:51pm ESE 9 14 - - - - 10 Partly cloudy - 10.8 1024.8 0.0
26/06:42pm E 10 15 - - - - 6 Partly cloudy - 11.1 1024.6 0.0
26/06:40pm ENE 10 16 - - - - 5 Partly cloudy - 11.2 1024.6 0.0
26/06:37pm ENE 10 16 - - - - 5 Partly cloudy - 11.4 1024.6 0.0
26/06:34pm E 10 16 - - - - 7 Partly cloudy - 11.4 1024.6 0.0
26/06:30pm E 10 14 - - - - 8 Partly cloudy - 11.2 1024.7 0.0
26/06:23pm E 10 17 - - - - 5 Partly cloudy - 11.2 1024.6 0.0
26/06:00pm E 11 15 - - - - 10 Cloudy - 11.5 1024.3 0.0
26/05:30pm E 11 16 - - - - 10 Cloudy - 11.4 1024.1 0.0
26/05:00pm E 13 17 - - - - 10 Partly cloudy - 11.6 1024.0 0.0
26/04:30pm E 14 19 - - - - 10 Partly cloudy - 11.7 1024.1 0.0
26/04:00pm E 12 15 - - - - 10 Partly cloudy - 11.7 1024.4 0.0
26/03:30pm E 9 14 - - - - 10 Partly cloudy - 12.0 1024.5 0.0
26/03:00pm E 11 16 - - - - 10 Cloudy - 12.1 1024.8 0.0
26/02:30pm E 10 13 - - - - 10 Cloudy - 12.1 1025.0 0.0
26/02:00pm ESE 9 13 - - - - 10 Cloudy - 12.2 1025.2 0.0
26/01:30pm ESE 11 16 - - - - 10 Cloudy - 12.1 1025.5 0.0
26/01:00pm ESE 10 16 - - - - 10 Cloudy - 12.1 1025.7 0.0
26/12:30pm ESE 10 15 - - - - 10 Cloudy - 11.9 1026.1 0.0
26/12:00pm ESE 14 17 - - - - 10 Cloudy - 11.5 1026.5 0.0
26/11:30am ESE 13 19 - - - - 10 Cloudy - 11.3 1026.9 0.0
26/11:00am SE 13 16 - - - - 10 Cloudy - 10.9 1027.5 0.0
26/10:30am SE 11 15 - - - - 10 Cloudy - 10.4 1028.0 0.0
26/10:00am ESE 13 17 - - - - 10 Cloudy - 10.1 1028.3 0.0
26/09:30am ESE 11 14 - - - - 10 Cloudy - 10.0 1028.3 0.0
26/09:00am ESE 10 13 - - - - 10 Cloudy - 9.9 1028.2 0.0
26/08:30am ESE 10 13 - - - - 10 Cloudy - 9.9 1028.2 0.0
26/08:00am ESE 11 13 - - - - 10 Cloudy - 9.9 1028.0 0.0
26/07:30am ESE 11 16 - - - - 10 Cloudy - 9.9 1027.7 0.0
26/07:00am ESE 8 10 - - - - 10 Cloudy - 9.6 1027.9 0.0
26/06:30am ESE 9 11 - - - - 10 Cloudy - 9.3 1027.8 0.0
26/06:00am ESE 9 12 - - - - 10 Cloudy - 8.7 1027.7 0.0
26/05:30am SSW 4 5 - - - - 10 Cloudy - 6.3 1027.8 0.0
26/05:00am WNW 3 4 - - - - 10 Cloudy - 6.0 1027.8 0.0
26/04:30am W 4 5 - - - - 7 Cloudy - 5.7 1027.8 0.0
26/04:23am WSW 4 5 - - - - 8 Cloudy - 5.6 1027.9 0.0
26/04:00am WNW 5 6 - - - - 5 Cloudy - 5.6 1027.9 0.0
26/03:52am NW 5 6 - - - - 5 Cloudy - 5.5 1027.8 0.0
26/03:46am WNW 4 5 - - - - 7 Cloudy - 5.5 1027.8 0.0
26/03:30am WSW 5 5 - - - - 6 Cloudy - 5.4 1027.9 0.0
26/03:05am WNW 5 5 - - - - 5 Cloudy - 5.2 1028.0 0.0
26/03:00am W 4 5 - - - - 8 Cloudy - 5.1 1027.9 0.0
26/02:47am W 5 5 - - - - 8 Cloudy - 4.9 1028.0 0.0
26/02:30am W 5 6 - - - - 5 Cloudy - 4.6 1028.0 0.0
26/02:25am W 5 5 - - - - 5 Cloudy - 4.6 1028.0 0.0
26/02:00am WSW 4 4 - - - - 10 Cloudy - 4.2 1028.1 0.0
26/01:30am WSW 2 4 - - - - 10 Cloudy - 3.7 1028.2 0.0
26/01:00am WNW 6 8 - - - - 10 Cloudy - 3.7 1028.4 0.0
26/12:30am W 6 7 - - - - 10 Cloudy - 2.5 1028.7 0.0
26/12:00am WNW 5 7 - - - - 9 Partly cloudy - 1.8 1028.8 0.0
 
Date/Time
EST
Wind Sea
Height
m
Swell Vis
km
Cloud Weather Temp
°C
Press
hPa
Rain since
9am
mm
Dir  Spd
kts
Gust
kts
Height
m
Period
s
Dir
25/11:30pm WNW 6 7 - - - - 8 Partly cloudy - 1.4 1028.8 0.0
25/11:16pm WNW 6 7 - - - - 8 Partly cloudy - 1.3 1028.6 0.0
25/11:00pm WNW 6 7 - - - - 5 Partly cloudy - 1.2 1028.7 0.0
25/10:55pm WNW 6 7 - - - - 5 Partly cloudy - 1.3 1028.7 0.0
25/10:30pm WNW 6 7 - - - - 9 - - 1.7 1028.7 0.0
25/10:22pm W 7 7 - - - - 7 - - 1.5 1028.7 0.0
25/10:03pm WNW 6 7 - - - - 5 - - 1.7 1028.6 0.0
25/10:00pm WNW 6 7 - - - - 6 - - 1.9 1028.6 0.0
25/09:30pm WNW 5 7 - - - - 10 - - 3.1 1028.7 0.0
25/09:00pm W 6 7 - - - - 7 - - 3.0 1028.7 0.0
25/08:30pm WSW 5 7 - - - - 7 - - 2.7 1028.6 0.0
25/08:00pm W 5 6 - - - - 9 - - 3.3 1028.7 0.0
25/07:30pm WNW 5 6 - - - - 10 - - 3.5 1028.6 0.0
25/07:00pm W 4 5 - - - - 10 - - 3.6 1028.3 0.0
25/06:30pm SW 4 6 - - - - 10 - - 4.0 1027.9 0.0
25/06:00pm SW 5 6 - - - - 10 - - 3.9 1027.5 0.0
25/05:30pm S 4 5 - - - - 10 - - 5.1 1027.3 0.0
25/05:00pm CALM 0 0 - - - - 10 - - 8.0 1027.3 0.0
25/04:30pm CALM 0 0 - - - - 10 - - 10.2 1027.4 0.0
25/04:00pm NE 3 4 - - - - 10 - - 11.0 1027.5 0.0
25/03:30pm ENE 5 7 - - - - 10 - - 11.0 1027.4 0.0
25/03:00pm E 6 9 - - - - 10 - - 11.1 1027.2 0.0
25/02:30pm E 7 11 - - - - 10 - - 10.9 1027.0 0.0
25/02:00pm E 8 11 - - - - 10 - - 11.1 1026.8 0.0
25/01:30pm E 9 14 - - - - 10 - - 10.9 1026.5 0.0
25/01:00pm ENE 9 13 - - - - 10 - - 10.6 1026.4 0.0
25/12:30pm ENE 9 11 - - - - 10 - - 10.9 1026.7 0.0
25/12:00pm ENE 7 10 - - - - 10 - - 10.7 1026.8 0.0
25/11:30am NE 7 9 - - - - 10 - - 10.2 1027.3 0.0
25/11:00am ESE 4 5 - - - - 10 - - 10.5 1027.8 0.0
25/10:30am NNW 3 4 - - - - 10 - - 9.3 1028.0 0.0
25/10:00am WNW 4 5 - - - - 10 - - 7.5 1028.2 0.0
25/09:30am WNW 5 6 - - - - 10 - - 5.6 1028.3 0.0
25/09:00am WNW 5 6 - - - - 10 - - 3.8 1028.3 0.0
25/08:30am WNW 5 7 - - - - 10 - - 1.3 1028.1 0.0
25/08:00am WSW 5 5 - - - - 10 - - -0.3 1027.9 0.0
25/07:30am WNW 5 6 - - - - 10 - - -0.8 1027.6 0.0
25/07:00am WNW 5 7 - - - - 10 - - -0.7 1027.1 0.0
25/06:30am WNW 5 6 - - - - 10 - - 0.1 1026.9 0.0
25/06:00am WNW 5 6 - - - - 10 - - -0.7 1026.6 0.0
25/05:30am WNW 5 6 - - - - 10 - - -0.5 1026.4 0.0
25/05:00am WNW 6 7 - - - - 10 - - -0.2 1026.3 0.0
25/04:30am WNW 5 7 - - - - 10 - - 0.2 1026.0 0.0
25/04:00am WNW 5 6 - - - - 10 - - 0.5 1026.0 0.0
25/03:30am WNW 5 6 - - - - 10 - - 0.4 1026.1 0.0
25/03:00am WNW 5 7 - - - - 10 - - 0.3 1026.2 0.0
25/02:30am W 5 6 - - - - 9 - - -0.1 1026.1 0.0

Other formats

Comma delimited format used in spreadsheet applications
http://www.bom.gov.au/fwo/IDT60701/IDT60701.95957.axf

JavaScript Object Notation format (JSON) in row-major order
http://www.bom.gov.au/fwo/IDT60701/IDT60701.95957.json

Data quality

Most of these data are generated automatically and are frequently updated. Quality checks on data are not normally performed. It is possible for incorrect values to appear. Refer to information at About Latest Weather Observations and please check the disclaimer before using these data.